Flight Track Log - Related Links

Times and Time Zones

All times are in EDT time to prevent confusion due to time zone crossing. See the UAL1177 flight status page for this flight to view local times or setup timezone preferences in your user account.

Time Position Orientation Groundspeed Altitude Reporting Facility
EDT Latitude Longitude Course Direction KTS MPH feet Rate Location/Type
Wed 04:52:00 PM 40.5717 -80.6463 282° West  Level FlightAware Approximate
Wed 04:53:00 PM 40.6016 -80.7896 288° West  Level FlightAware Approximate
Wed 04:54:00 PM 40.6332 -80.9324 285° West  Level FlightAware Approximate
Wed 04:55:00 PM 40.6555 -81.0775 285° West  Level FlightAware Approximate
Wed 04:56:00 PM 40.6844 -81.2215 285° West  Level FlightAware Approximate
Wed 04:56:53 PM 40.6410 -80.9460 285° West 351 404 16,400  Level FlightAware ADS-B
Wed 04:57:00 PM 40.7132 -81.3657 285° West  Level FlightAware Approximate
Wed 04:57:33 PM 40.6590 -81.0310 286° West 357 411 17,900  Level FlightAware ADS-B
Wed 04:58:18 PM 40.6780 -81.1260 285° West 369 425 19,200 1,694 Climbing FlightAware ADS-B
Wed 04:58:58 PM 40.6960 -81.2150 285° West 377 434 20,300 1,835 Climbing FlightAware ADS-B
Wed 04:59:43 PM 40.7160 -81.3130 285° West 378 435 21,800 1,835 Climbing FlightAware ADS-B
Wed 05:00:23 PM 40.7350 -81.4020 286° West 382 440 22,900 1,500 Climbing FlightAware ADS-B
Wed 05:01:03 PM 40.7600 -81.4910 290° West 390 449 23,800 1,275 Climbing FlightAware ADS-B
Wed 05:01:43 PM 40.7880 -81.5790 293° West 398 458 24,600 1,200 Climbing FlightAware ADS-B
Wed 05:02:28 PM 40.8220 -81.6830 293° West 407 468 25,500 1,129 Climbing FlightAware ADS-B
Wed 05:03:08 PM 40.8520 -81.7760 293° West 414 476 26,200 1,059 Climbing FlightAware ADS-B
Wed 05:03:53 PM 40.8850 -81.8790 293° West 420 483 27,000 1,059 Climbing FlightAware ADS-B
Wed 05:04:33 PM 40.9140 -81.9710 293° West 424 488 27,700 1,200 Climbing FlightAware ADS-B
Wed 05:05:13 PM 40.9440 -82.0680 292° West 422 486 28,600 1,412 Climbing FlightAware ADS-B
Wed 05:05:58 PM 40.9590 -82.1840 280° West 418 481 29,700 1,341 Climbing FlightAware ADS-B
Wed 05:06:38 PM 40.9700 -82.2840 278° West 417 480 30,500 1,129 Climbing FlightAware ADS-B
Wed 05:07:23 PM 40.9800 -82.3930 277° West 417 480 31,300 988 Climbing FlightAware ADS-B
Wed 05:08:03 PM 40.9900 -82.4940 278° West 417 480 31,900 525 Climbing FlightAware ADS-B
Wed 05:08:43 PM 41.0010 -82.5990 278° West 418 481 32,000 71 Climbing FlightAware ADS-B
Wed 05:09:28 PM 41.0120 -82.7130 277° West 417 480 32,000 282 Level FlightAware ADS-B
Wed 05:10:08 PM 41.0210 -82.8120 277° West 416 479 32,400 525 Climbing FlightAware ADS-B
Wed 05:10:48 PM 41.0300 -82.9070 277° West 415 478 32,700 225 Climbing FlightAware ADS-B
Wed 05:11:28 PM 41.0380 -82.9930 277° West 415 478 32,700 975 Level FlightAware ADS-B
Wed 05:12:08 PM 41.0490 -83.1060 277° West 414 476 34,000 918 Climbing FlightAware ADS-B
Wed 05:12:53 PM 41.0590 -83.2200 277° West 413 475 34,000  Level FlightAware ADS-B
Wed 05:13:38 PM 41.0700 -83.3390 277° West 411 473 34,000  Level FlightAware ADS-B
Wed 05:14:18 PM 41.0800 -83.4430 277° West 411 473 34,000  Level FlightAware ADS-B
Wed 05:15:03 PM 41.0890 -83.5540 276° West 411 473 34,000  Level FlightAware ADS-B
Wed 05:15:43 PM 41.0980 -83.6530 277° West 411 473 34,000  Level FlightAware ADS-B
Wed 05:16:28 PM 41.1080 -83.7650 277° West 413 475 34,000  Level FlightAware ADS-B
Wed 05:17:08 PM 41.1160 -83.8640 276° West 414 476 34,000  Level FlightAware ADS-B
Wed 05:17:48 PM 41.1250 -83.9650 277° West 414 476 34,000  Level FlightAware ADS-B
Wed 05:18:28 PM 41.1340 -84.0680 277° West 415 478 34,000  Level FlightAware ADS-B
Wed 05:19:13 PM 41.1440 -84.1830 277° West 415 478 34,000  Level FlightAware ADS-B
Wed 05:19:53 PM 41.1520 -84.2840 276° West 415 478 34,000  Level FlightAware ADS-B
Wed 05:20:38 PM 41.1610 -84.3990 276° West 416 479 34,000  Level FlightAware ADS-B
Wed 05:21:18 PM 41.1690 -84.4950 276° West 415 478 34,000  Level FlightAware ADS-B
Wed 05:22:03 PM 41.1780 -84.6130 276° West 414 476 34,000  Level FlightAware ADS-B
Wed 05:22:43 PM 41.1860 -84.7090 276° West 412 474 34,000  Level FlightAware ADS-B
Wed 05:23:23 PM 41.1940 -84.8080 276° West 410 472 34,000  Level FlightAware ADS-B
Wed 05:24:08 PM 41.2020 -84.9210 275° West 409 471 34,000  Level FlightAware ADS-B
Wed 05:24:48 PM 41.2090 -85.0120 276° West 408 470 34,000  Level FlightAware ADS-B
Wed 05:25:23 PM 41.2170 -85.1110 276° West 408 470 34,000  Level FlightAware ADS-B
Wed 05:26:08 PM 41.2250 -85.2200 276° West 412 474 34,000  Level FlightAware ADS-B
Wed 05:26:48 PM 41.2320 -85.3190 275° West 412 474 34,000  Level FlightAware ADS-B
Wed 05:27:38 PM 41.2410 -85.4450 275° West 413 475 34,000  Level FlightAware ADS-B
Wed 05:28:18 PM 41.2480 -85.5440 275° West 413 475 34,000  Level FlightAware ADS-B
Wed 05:28:58 PM 41.2560 -85.6490 276° West 413 475 34,000  Level FlightAware ADS-B
Wed 05:29:43 PM 41.2640 -85.7620 275° West 413 475 34,000  Level FlightAware ADS-B
Wed 05:30:23 PM 41.2700 -85.8570 275° West 413 475 34,000  Level FlightAware ADS-B
Wed 05:31:08 PM 41.2790 -85.9790 276° West 414 476 34,000  Level FlightAware ADS-B
Wed 05:31:48 PM 41.2850 -86.0770 275° West 414 476 34,000  Level FlightAware ADS-B
Wed 05:32:28 PM 41.2920 -86.1750 275° West 414 476 34,000  Level FlightAware ADS-B
Wed 05:33:13 PM 41.2990 -86.2920 275° West 413 475 34,000  Level FlightAware ADS-B
Wed 05:34:08 PM 41.3080 -86.4340 275° West 413 475 34,000  Level FlightAware ADS-B
Wed 05:34:48 PM 41.3150 -86.5350 275° West 414 476 34,000  Level FlightAware ADS-B
Wed 05:35:38 PM 41.3230 -86.6650 275° West 415 478 34,000  Level FlightAware ADS-B
Wed 05:36:18 PM 41.3290 -86.7670 275° West 416 479 34,000  Level FlightAware ADS-B
Wed 05:36:58 PM 41.3340 -86.8600 274° West 416 479 34,000  Level FlightAware ADS-B
Wed 05:37:43 PM 41.3420 -86.9810 275° West 418 481 34,000  Level FlightAware ADS-B
Wed 05:38:23 PM 41.3480 -87.0840 274° West 417 480 34,000  Level FlightAware ADS-B
Wed 05:39:03 PM 41.3530 -87.1750 274° West 416 479 34,000  Level FlightAware ADS-B
Wed 05:39:48 PM 41.3600 -87.2970 274° West 414 476 34,000  Level FlightAware ADS-B
Wed 05:40:28 PM 41.3650 -87.3950 274° West 412 474 34,000  Level FlightAware ADS-B
Wed 05:41:13 PM 41.3710 -87.5110 274° West 410 472 34,000  Level FlightAware ADS-B
Wed 05:41:53 PM 41.3760 -87.6050 274° West 409 471 34,000  Level FlightAware ADS-B
Wed 05:42:33 PM 41.3820 -87.7160 274° West 410 472 34,000  Level FlightAware ADS-B
Wed 05:43:03 PM 41.3860 -87.7900 274° West 409 471 34,000  Level FlightAware ADS-B
Wed 05:43:48 PM 41.3920 -87.9020 274° West 409 471 34,000  Level FlightAware ADS-B
Wed 05:44:28 PM 41.3970 -88.0030 274° West 411 473 34,000  Level FlightAware ADS-B
Wed 05:45:08 PM 41.4020 -88.1040 274° West 414 476 34,000  Level FlightAware ADS-B
Wed 05:45:53 PM 41.4070 -88.2200 273° West 416 479 34,000  Level FlightAware ADS-B
Wed 05:46:33 PM 41.4120 -88.3240 274° West 416 479 34,000  Level FlightAware ADS-B
Wed 05:47:18 PM 41.4170 -88.4370 273° West 416 479 34,000  Level FlightAware ADS-B
Wed 05:47:58 PM 41.4220 -88.5380 274° West 416 479 34,000  Level FlightAware ADS-B
Wed 05:48:38 PM 41.4270 -88.6390 274° West 416 479 34,000  Level FlightAware ADS-B
Wed 05:49:18 PM 41.4310 -88.7410 273° West 416 479 34,000  Level FlightAware ADS-B
Wed 05:50:03 PM 41.4360 -88.8550 273° West 416 479 34,000  Level FlightAware ADS-B
Wed 05:50:48 PM 41.4410 -88.9770 273° West 417 480 34,000  Level FlightAware ADS-B
Wed 05:51:28 PM 41.4450 -89.0760 273° West 418 481 34,000  Level FlightAware ADS-B
Wed 05:52:08 PM 41.4490 -89.1830 273° West 418 481 34,000  Level FlightAware ADS-B
Wed 05:52:53 PM 41.4530 -89.2950 273° West 419 482 34,000  Level FlightAware ADS-B
Wed 05:53:33 PM 41.4570 -89.3990 273° West 419 482 34,000  Level FlightAware ADS-B
Wed 05:54:13 PM 41.4610 -89.4980 273° West 419 482 34,000  Level FlightAware ADS-B
Wed 05:54:53 PM 41.4650 -89.6040 273° West 420 483 34,000  Level FlightAware ADS-B
Wed 05:55:38 PM 41.4690 -89.7190 273° West 419 482 34,000  Level FlightAware ADS-B
Wed 05:56:18 PM 41.4720 -89.8230 272° West 418 481 34,000  Level FlightAware ADS-B
Wed 05:57:03 PM 41.4760 -89.9370 273° West 413 475 34,000  Level FlightAware ADS-B
Wed 05:57:58 PM 41.4750 -90.0780 270° West 411 473 34,000  Level FlightAware ADS-B
Wed 05:58:38 PM 41.4690 -90.1780 265° West 411 473 34,000  Level FlightAware ADS-B
Wed 05:59:18 PM 41.4640 -90.2800 266° West 414 476 34,000  Level FlightAware ADS-B
Wed 06:00:03 PM 41.4580 -90.3880 266° West 418 481 34,000  Level FlightAware ADS-B
Wed 06:00:38 PM 41.4520 -90.4780 265° West 419 482 34,000  Level FlightAware ADS-B
Wed 06:01:43 PM 41.4420 -90.6500 266° West 421 484 34,000  Level FlightAware ADS-B
Wed 06:02:23 PM 41.4360 -90.7530 266° West 422 486 34,000  Level FlightAware ADS-B
Wed 06:03:03 PM 41.4300 -90.8580 266° West 421 484 34,000  Level FlightAware ADS-B
Wed 06:03:48 PM 41.4230 -90.9750 265° West 421 484 34,000  Level FlightAware ADS-B
Wed 06:04:28 PM 41.4170 -91.0760 266° West 421 484 34,000  Level FlightAware ADS-B
Wed 06:05:08 PM 41.4100 -91.1770 265° West 423 487 34,000  Level FlightAware ADS-B
Wed 06:05:53 PM 41.4030 -91.2900 265° West 425 489 34,000  Level FlightAware ADS-B
Wed 06:06:28 PM 41.3970 -91.3890 265° West 427 491 34,000  Level FlightAware ADS-B
Wed 06:07:18 PM 41.3890 -91.5140 265° West 427 491 34,000  Level FlightAware ADS-B
Wed 06:07:48 PM 41.3830 -91.5980 265° West 427 491 34,000  Level FlightAware ADS-B
Wed 06:08:33 PM 41.3760 -91.7120 265° West 428 493 34,000  Level FlightAware ADS-B
Wed 06:09:18 PM 41.3670 -91.8220 264° West 428 493 34,000  Level FlightAware ADS-B
Wed 06:10:33 PM 41.3540 -92.0190 265° West 430 495 34,000  Level FlightAware ADS-B
Wed 06:11:13 PM 41.3460 -92.1350 265° West 428 493 34,000  Level FlightAware ADS-B
Wed 06:12:08 PM 41.3360 -92.2730 265° West 428 493 34,000  Level FlightAware ADS-B
Wed 06:12:48 PM 41.3290 -92.3620 264° West 428 493 34,000  Level FlightAware ADS-B
Wed 06:13:33 PM 41.3190 -92.5030 265° West 427 491 34,000  Level FlightAware ADS-B
Wed 06:14:18 PM 41.3100 -92.6220 264° West 426 490 34,000  Level FlightAware ADS-B
Wed 06:14:58 PM 41.3020 -92.7270 264° West 425 489 34,000  Level FlightAware ADS-B
Wed 06:15:38 PM 41.2950 -92.8300 265° West 425 489 34,000  Level FlightAware ADS-B
Wed 06:16:23 PM 41.2860 -92.9430 264° West 424 488 34,000  Level FlightAware ADS-B
Wed 06:17:03 PM 41.2780 -93.0480 264° West 425 489 34,000  Level FlightAware ADS-B
Wed 06:17:43 PM 41.2690 -93.1500 263° West 425 489 34,000  Level FlightAware ADS-B
Wed 06:18:28 PM 41.2600 -93.2640 264° West 426 490 34,000  Level FlightAware ADS-B
Wed 06:19:08 PM 41.2520 -93.3690 264° West 426 490 34,000  Level FlightAware ADS-B
Wed 06:19:48 PM 41.2430 -93.4680 263° West 427 491 34,000  Level FlightAware ADS-B
Wed 06:20:28 PM 41.2340 -93.5720 263° West 427 491 34,000  Level FlightAware ADS-B
Wed 06:21:08 PM 41.2260 -93.6610 263° West 427 491 34,000  Level FlightAware ADS-B
Wed 06:21:58 PM 41.2160 -93.7710 263° West 427 491 34,000  Level FlightAware ADS-B
Wed 06:22:38 PM 41.2050 -93.9110 264° West 428 493 34,000  Level FlightAware ADS-B
Wed 06:23:18 PM 41.1970 -94.0000 263° West 428 493 34,000  Level FlightAware ADS-B
Wed 06:23:58 PM 41.1890 -94.0890 263° West 428 493 34,000  Level FlightAware ADS-B
Wed 06:24:38 PM 41.1810 -94.1770 263° West 428 493 34,000  Level FlightAware ADS-B
Wed 06:25:23 PM 41.1680 -94.3350 264° West 429 494 34,000  Level FlightAware ADS-B
Wed 06:26:03 PM 41.1600 -94.4240 263° West 429 494 34,000  Level FlightAware ADS-B
Wed 06:26:43 PM 41.1510 -94.5130 262° West 429 494 34,000  Level FlightAware ADS-B
Wed 06:27:33 PM 41.1410 -94.6240 263° West 429 494 34,000  Level FlightAware ADS-B
Wed 06:28:13 PM 41.1330 -94.7130 263° West 429 494 34,000  Level FlightAware ADS-B
Wed 06:28:53 PM 41.1250 -94.8020 263° West 429 494 34,000  Level FlightAware ADS-B
Wed 06:29:33 PM 41.1160 -94.8910 262° West 429 494 34,000  Level FlightAware ADS-B
Wed 06:30:13 PM 41.1080 -94.9800 263° West 429 494 34,000  Level FlightAware ADS-B
Wed 06:31:03 PM 41.0980 -95.0910 263° West 429 494 34,000  Level FlightAware ADS-B
Wed 06:31:43 PM 41.0900 -95.1800 263° West 429 494 34,000  Level FlightAware ADS-B
Wed 06:32:23 PM 41.0810 -95.2690 262° West 429 494 34,000  Level FlightAware ADS-B
Wed 06:33:03 PM 41.0730 -95.3570 263° West 429 494 34,000  Level FlightAware ADS-B
Wed 06:33:53 PM 41.0630 -95.4680 263° West 429 494 34,000  Level FlightAware ADS-B
Wed 06:34:33 PM 41.0550 -95.5570 263° West 429 494 34,000  Level FlightAware ADS-B
Wed 06:35:35 PM 41.0122 -95.9197 263° West 430 495 34,000  Level Minneapolis Center
Wed 06:36:37 PM 40.9914 -96.1097 262° West 431 496 34,000  Level Minneapolis Center
Wed 06:37:39 PM 40.9783 -96.2667 264° West 429 494 34,000  Level Minneapolis Center
Wed 06:38:41 PM 40.9756 -96.4253 269° West 428 493 34,000  Level Minneapolis Center
Wed 06:39:43 PM 40.9717 -96.5842 268° West 430 495 34,000  Level Minneapolis Center
Wed 06:40:45 PM 40.9669 -96.7444 268° West 433 498 34,000  Level Minneapolis Center
Wed 06:41:48 PM 40.9625 -96.9036 268° West 433 498 34,000  Level Minneapolis Center
Wed 06:42:50 PM 40.9567 -97.0633 267° West 433 498 34,000  Level Minneapolis Center
Wed 06:43:52 PM 40.9500 -97.2547 267° West 434 499 34,000  Level Minneapolis Center
Wed 06:44:54 PM 40.9458 -97.4086 268° West 434 499 34,000  Level Minneapolis Center
Wed 06:45:56 PM 40.9400 -97.5672 267° West 432 497 34,000  Level Minneapolis Center
Wed 06:46:58 PM 40.9344 -97.7250 267° West 430 495 34,000  Level Minneapolis Center
Wed 06:48:00 PM 40.9278 -97.8822 267° West 429 494 34,000  Level Minneapolis Center
Wed 06:49:02 PM 40.9203 -98.0717 267° West 429 494 34,000  Level Minneapolis Center
Wed 06:50:04 PM 40.9136 -98.2281 267° West 426 490 34,000  Level Minneapolis Center
Wed 06:51:06 PM 40.9067 -98.3856 267° West 426 490 34,000  Level Minneapolis Center
Wed 06:52:08 PM 40.9000 -98.5464 267° West 429 494 34,000  Level Minneapolis Center
Wed 06:53:10 PM 40.8925 -98.7047 266° West 431 496 34,000  Level Minneapolis Center
Wed 06:54:12 PM 40.8836 -98.8631 266° West 432 497 34,000  Level Minneapolis Center
Wed 06:55:14 PM 40.8769 -99.0214 267° West 432 497 34,000  Level Minneapolis Center
Wed 06:56:17 PM 40.9089 -99.1764 285° West 438 504 34,000  Level Denver Center
Wed 06:57:19 PM 40.9856 -99.3022 309° West 437 503 34,000  Level Denver Center
Wed 06:58:20 PM 41.0756 -99.4542 308° West 435 501 34,000  Level Denver Center
Wed 06:59:22 PM 41.1481 -99.5772 308° West 432 497 34,000  Level Denver Center
Wed 07:00:24 PM 41.2192 -99.6964 308° West 431 496 34,000  Level Denver Center
Wed 07:01:26 PM 41.2989 -99.8364 307° West 428 493 34,000  Level Denver Center
Wed 07:02:28 PM 41.3669 -99.9544 308° West 425 489 34,000  Level Denver Center
Wed 07:03:30 PM 41.4169 -100.1064 294° West 422 486 34,000  Level Denver Center
Wed 07:04:31 PM 41.3836 -100.2503 253° West 425 489 34,000  Level Denver Center
Wed 07:05:33 PM 41.3378 -100.4094 249° West 430 495 34,000  Level Denver Center
Wed 07:06:35 PM 41.2300 -100.4514 196° South 438 504 34,000  Level Denver Center
Wed 07:07:37 PM 41.0922 -100.4647 184° South 441 507 34,000  Level Denver Center
Wed 07:08:39 PM 40.9750 -100.4839 187° South 444 511 34,000  Level Denver Center
Wed 07:09:41 PM 40.9328 -100.6083 246° West 424 488 34,000  Level Denver Center
Wed 07:11:00 PM 40.9333 -100.8017 270° West  Level FlightAware Approximate
Wed 07:11:45 PM 41.1519 -100.7203 270° West 434 499 34,000  Level Denver Center
Wed 07:12:46 PM 41.2847 -100.7506 350° North 435 501 34,000  Level Denver Center
Wed 07:18:08 PM 41.4160 -101.3190 350° North 424 488 34,000  Level FlightAware ADS-B
Wed 07:18:48 PM 41.3880 -101.4010 246° West 424 488 34,000  Level FlightAware ADS-B
Wed 07:19:01 PM 41.3726 -101.4500 247° West 423 487 34,000  Level FlightAware ADS-B
Wed 07:19:34 PM 41.3470 -101.5270 246° West 421 484 34,000  Level FlightAware ADS-B
Wed 07:20:04 PM 41.3233 -101.5970 246° West 420 483 34,000  Level FlightAware ADS-B
Wed 07:20:35 PM 41.2982 -101.6720 246° West 419 482 34,000  Level FlightAware ADS-B
Wed 07:21:06 PM 41.2742 -101.7430 246° West 420 483 34,000  Level FlightAware ADS-B
Wed 07:21:38 PM 41.2486 -101.8190 246° West 419 482 34,000  Level FlightAware ADS-B
Wed 07:22:18 PM 41.2168 -101.9130 246° West 420 483 34,000  Level FlightAware ADS-B
Wed 07:22:48 PM 41.1927 -101.9840 246° West 420 483 34,000  Level FlightAware ADS-B
Wed 07:23:18 PM 41.1687 -102.0540 246° West 410 472 34,000  Level FlightAware ADS-B
Wed 07:23:49 PM 41.1458 -102.1210 246° West 392 451 34,000  Level FlightAware ADS-B
Wed 07:24:19 PM 41.1229 -102.1880 246° West 401 461 34,000  Level FlightAware ADS-B
Wed 07:24:50 PM 41.0993 -102.2570 246° West 410 472 34,000  Level FlightAware ADS-B
Wed 07:25:20 PM 41.0752 -102.3270 245° Southwest 418 481 34,000  Level FlightAware ADS-B
Wed 07:25:51 PM 41.0505 -102.3990 246° West 418 481 34,000  Level FlightAware ADS-B
Wed 07:26:21 PM 41.0263 -102.4680 245° Southwest 417 480 34,000  Level FlightAware ADS-B
Wed 07:26:51 PM 41.0021 -102.5380 245° Southwest 417 480 34,000  Level FlightAware ADS-B
Wed 07:27:23 PM 40.9766 -102.6120 245° Southwest 417 480 34,000  Level FlightAware ADS-B
Wed 07:27:53 PM 40.9521 -102.6820 245° Southwest 414 476 34,000  Level FlightAware ADS-B
Wed 07:28:24 PM 40.9273 -102.7530 245° Southwest 413 475 34,000  Level FlightAware ADS-B
Wed 07:28:56 PM 40.9019 -102.8260 245° Southwest 413 475 34,000  Level FlightAware ADS-B
Wed 07:29:26 PM 40.8777 -102.8940 245° Southwest 413 475 34,000  Level FlightAware ADS-B
Wed 07:29:56 PM 40.8533 -102.9640 245° Southwest 413 475 34,000 -590 Level FlightAware ADS-B
Wed 07:30:27 PM 40.8284 -103.0340 245° Southwest 412 474 33,400 -968 Descending FlightAware ADS-B
Wed 07:30:58 PM 40.8040 -103.1040 245° Southwest 412 474 33,000 -393 Descending FlightAware ADS-B
Wed 07:31:28 PM 40.7795 -103.1730 245° Southwest 412 474 33,000  Level FlightAware ADS-B
Wed 07:31:59 PM 40.7545 -103.2430 245° Southwest 412 474 33,000 -98 Level FlightAware ADS-B
Wed 07:32:29 PM 40.7299 -103.3120 245° Southwest 409 471 32,900 -689 Descending FlightAware ADS-B
Wed 07:33:00 PM 40.7063 -103.3780 245° Southwest 393 452 32,300 -984 Descending FlightAware ADS-B
Wed 07:33:30 PM 40.6836 -103.4420 245° Southwest 372 428 31,900 -900 Descending FlightAware ADS-B
Wed 07:34:00 PM 40.6617 -103.5030 245° Southwest 366 421 31,400 -1,400 Descending FlightAware ADS-B
Wed 07:34:30 PM 40.6400 -103.5630 245° Southwest 365 420 30,500 -1,355 Descending FlightAware ADS-B
Wed 07:35:02 PM 40.6176 -103.6250 245° Southwest 363 418 30,000 -638 Descending FlightAware ADS-B
Wed 07:35:17 PM 40.6062 -103.6560 244° Southwest 362 417 30,000  Level FlightAware ADS-B
Wed 07:35:22 PM 40.6019 -103.6660 240° Southwest 361 415 30,000  Level FlightAware ADS-B
Wed 07:35:35 PM 40.5874 -103.6870 228° Southwest 364 419 30,000  Level FlightAware ADS-B
Wed 07:35:46 PM 40.5728 -103.7000 214° Southwest 368 423 30,000  Level FlightAware ADS-B
Wed 07:35:50 PM 40.5662 -103.7040 205° Southwest 369 425 30,000 -600 Level FlightAware ADS-B
Wed 07:35:56 PM 40.5563 -103.7090 201° Southwest 371 427 29,900 -545 Descending FlightAware ADS-B
Wed 07:36:01 PM 40.5488 -103.7110 191° South 373 429 29,900 -667 Level FlightAware ADS-B
Wed 07:36:05 PM 40.5413 -103.7130 191° South 375 432 29,800 -1,200 Descending FlightAware ADS-B
Wed 07:36:11 PM 40.5310 -103.7130 180° South 377 434 29,700 -1,200 Descending FlightAware ADS-B
Wed 07:36:15 PM 40.5246 -103.7120 173° South 377 434 29,600 -923 Descending FlightAware ADS-B
Wed 07:36:24 PM 40.5085 -103.7080 169° South 378 435 29,500 -857 Descending FlightAware ADS-B
Wed 07:36:29 PM 40.5004 -103.7040 159° South 380 437 29,400 -1,333 Descending FlightAware ADS-B
Wed 07:36:33 PM 40.4945 -103.7000 153° Southeast 381 438 29,300 -1,500 Descending FlightAware ADS-B
Wed 07:36:37 PM 40.4880 -103.6940 145° Southeast 381 438 29,200 -1,333 Descending FlightAware ADS-B
Wed 07:36:42 PM 40.4810 -103.6880 147° Southeast 382 440 29,100 -600 Descending FlightAware ADS-B
Wed 07:36:47 PM 40.4751 -103.6800 134° Southeast 383 441 29,100 -667 Level FlightAware ADS-B
Wed 07:36:51 PM 40.4697 -103.6720 132° Southeast 383 441 29,000 -1,200 Descending FlightAware ADS-B
Wed 07:36:57 PM 40.4638 -103.6610 125° Southeast 384 442 28,900 -1,200 Descending FlightAware ADS-B
Wed 07:37:01 PM 40.4601 -103.6520 118° Southeast 385 443 28,800 -1,091 Descending FlightAware ADS-B
Wed 07:37:08 PM 40.4560 -103.6390 113° Southeast 386 444 28,700 -1,000 Descending FlightAware ADS-B
Wed 07:37:13 PM 40.4537 -103.6270 104° East 388 447 28,600 -667 Descending FlightAware ADS-B
Wed 07:37:17 PM 40.4525 -103.6170 99° East 388 447 28,600 -750 Level FlightAware ADS-B
Wed 07:37:21 PM 40.4520 -103.6070 94° East 388 447 28,500 -1,200 Descending FlightAware ADS-B
Wed 07:37:27 PM 40.4524 -103.5950 87° East 389 448 28,400 -800 Descending FlightAware ADS-B
Wed 07:37:36 PM 40.4556 -103.5730 79° East 391 450 28,300 -1,059 Descending FlightAware ADS-B
Wed 07:37:44 PM 40.4610 -103.5560 67° East 391 450 28,100 -1,385 Descending FlightAware ADS-B
Wed 07:37:49 PM 40.4654 -103.5460 60° Northeast 390 449 28,000 -667 Descending FlightAware ADS-B
Wed 07:37:53 PM 40.4701 -103.5370 56° Northeast 389 448 28,000 -667 Level FlightAware ADS-B
Wed 07:37:58 PM 40.4762 -103.5280 48° Northeast 389 448 27,900 -1,200 Descending FlightAware ADS-B
Wed 07:38:03 PM 40.4828 -103.5200 43° Northeast 387 445 27,800 -1,200 Descending FlightAware ADS-B
Wed 07:38:33 PM 40.5219 -103.4740 42° Northeast 376 433 27,200 -952 Descending FlightAware ADS-B
Wed 07:39:06 PM 40.5638 -103.4240 42° Northeast 372 428 26,800 -857 Descending FlightAware ADS-B
Wed 07:39:36 PM 40.6019 -103.3780 43° Northeast 367 422 26,300 -955 Descending FlightAware ADS-B
Wed 07:39:50 PM 40.6190 -103.3580 42° Northeast 365 420 26,100 -900 Descending FlightAware ADS-B
Wed 07:39:56 PM 40.6269 -103.3510 34° Northeast 365 420 26,000 -1,200 Descending FlightAware ADS-B
Wed 07:40:00 PM 40.6337 -103.3460 29° Northeast 363 418 25,900 -1,333 Descending FlightAware ADS-B
Wed 07:40:05 PM 40.6410 -103.3420 23° Northeast 362 417 25,800 -667 Descending FlightAware ADS-B
Wed 07:40:09 PM 40.6473 -103.3390 20° North 361 415 25,800 -600 Level FlightAware ADS-B
Wed 07:40:15 PM 40.6571 -103.3360 13° North 358 412 25,700 -1,200 Descending FlightAware ADS-B
Wed 07:40:19 PM 40.6645 -103.3350 North 357 411 25,600 -1,200 Descending FlightAware ADS-B
Wed 07:40:25 PM 40.6732 -103.3350 360° North 354 407 25,500 -1,000 Descending FlightAware ADS-B
Wed 07:40:31 PM 40.6831 -103.3360 356° North 351 404 25,400 -1,000 Descending FlightAware ADS-B
Wed 07:40:37 PM 40.6931 -103.3390 347° North 348 400 25,300 -923 Descending FlightAware ADS-B
Wed 07:40:44 PM 40.7033 -103.3440 340° North 345 397 25,200 -923 Descending FlightAware ADS-B
Wed 07:40:50 PM 40.7110 -103.3490 334° Northwest 344 396 25,100 -1,091 Descending FlightAware ADS-B
Wed 07:40:55 PM 40.7182 -103.3550 328° Northwest 341 392 25,000 -545 Descending FlightAware ADS-B
Wed 07:41:01 PM 40.7250 -103.3630 318° Northwest 340 391 25,000 -462 Level FlightAware ADS-B
Wed 07:41:08 PM 40.7325 -103.3730 315° West 339 390 24,900 -600 Descending FlightAware ADS-B
Wed 07:41:11 PM 40.7363 -103.3790 310° West 338 389 24,900 -1,200 Level FlightAware ADS-B
Wed 07:41:18 PM 40.7421 -103.3920 300° West 338 389 24,700 -1,000 Descending FlightAware ADS-B
Wed 07:41:35 PM 40.7505 -103.4230 290° West 335 386 24,500 -720 Descending FlightAware ADS-B
Wed 07:41:43 PM 40.7519 -103.4390 277° West 335 386 24,400 -1,091 Descending FlightAware ADS-B
Wed 07:41:46 PM 40.7519 -103.4450 270° West 335 386 24,300 -1,200 Descending FlightAware ADS-B
Wed 07:41:53 PM 40.7508 -103.4610 265° West 334 384 24,200 -923 Descending FlightAware ADS-B
Wed 07:41:59 PM 40.7488 -103.4720 257° West 336 387 24,100 -923 Descending FlightAware ADS-B
Wed 07:42:06 PM 40.7452 -103.4850 250° West 337 388 24,000 -375 Descending FlightAware ADS-B
Wed 07:42:15 PM 40.7387 -103.5020 243° Southwest 340 391 24,000  Level FlightAware ADS-B
Wed 07:42:19 PM 40.7345 -103.5090 232° Southwest 341 392 24,000  Level FlightAware ADS-B
Wed 07:42:27 PM 40.7268 -103.5210 230° Southwest 344 396 24,000  Level FlightAware ADS-B
Wed 07:42:57 PM 40.6915 -103.5630 222° Southwest 345 397 24,000  Level FlightAware ADS-B
Wed 07:43:27 PM 40.6554 -103.6060 222° Southwest 344 396 24,000  Level FlightAware ADS-B
Wed 07:43:59 PM 40.6175 -103.6510 222° Southwest 348 400 24,000  Level FlightAware ADS-B
Wed 07:44:14 PM 40.5994 -103.6730 223° Southwest 348 400 24,000  Level FlightAware ADS-B
Wed 07:44:18 PM 40.5950 -103.6770 215° Southwest 348 400 24,000 -667 Level FlightAware ADS-B
Wed 07:44:23 PM 40.5878 -103.6830 212° Southwest 347 399 23,900 -1,000 Descending FlightAware ADS-B
Wed 07:44:30 PM 40.5778 -103.6890 204° Southwest 346 398 23,800 -1,091 Descending FlightAware ADS-B
Wed 07:44:34 PM 40.5717 -103.6920 200° South 346 398 23,700 -1,333 Descending FlightAware ADS-B
Wed 07:44:39 PM 40.5639 -103.6930 186° South 346 398 23,600 -667 Descending FlightAware ADS-B
Wed 07:44:43 PM 40.5570 -103.6940 186° South 345 397 23,600 -667 Level FlightAware ADS-B
Wed 07:44:48 PM 40.5491 -103.6940 180° South 346 398 23,500 -1,200 Descending FlightAware ADS-B
Wed 07:44:53 PM 40.5414 -103.6920 169° South 347 399 23,400 -1,200 Descending FlightAware ADS-B
Wed 07:44:58 PM 40.5337 -103.6890 164° South 347 399 23,300 -1,333 Descending FlightAware ADS-B
Wed 07:45:02 PM 40.5275 -103.6860 160° South 347 399 23,200 -857 Descending FlightAware ADS-B
Wed 07:45:05 PM 40.5232 -103.6830 152° Southeast 348 400 23,200 -750 Level FlightAware ADS-B
Wed 07:45:10 PM 40.5170 -103.6780 148° Southeast 348 400 23,100 -923 Descending FlightAware ADS-B
Wed 07:45:18 PM 40.5064 -103.6670 142° Southeast 347 399 23,000 -1,200 Descending FlightAware ADS-B
Wed 07:45:25 PM 40.4991 -103.6550 129° Southeast 346 398 22,800 -923 Descending FlightAware ADS-B
Wed 07:45:31 PM 40.4948 -103.6450 119° Southeast 346 398 22,800 -600 Level FlightAware ADS-B
Wed 07:45:35 PM 40.4919 -103.6370 115° Southeast 344 396 22,700 -1,500 Descending FlightAware ADS-B
Wed 07:45:39 PM 40.4898 -103.6290 109° East 342 394 22,600 -1,091 Descending FlightAware ADS-B
Wed 07:45:46 PM 40.4878 -103.6160 101° East 341 392 22,500 -600 Descending FlightAware ADS-B
Wed 07:45:49 PM 40.4873 -103.6090 95° East 340 391 22,500 -1,091 Level FlightAware ADS-B
Wed 07:45:57 PM 40.4879 -103.5920 87° East 339 390 22,300 -1,200 Descending FlightAware ADS-B
Wed 07:46:04 PM 40.4902 -103.5780 78° East 339 390 22,200 -1,200 Descending FlightAware ADS-B
Wed 07:46:07 PM 40.4918 -103.5720 71° East 340 391 22,100 -1,000 Descending FlightAware ADS-B
Wed 07:46:16 PM 40.4978 -103.5560 64° Northeast 340 391 22,000 -500 Descending FlightAware ADS-B
Wed 07:46:19 PM 40.5011 -103.5500 54° Northeast 341 392 22,000  Level FlightAware ADS-B
Wed 07:46:25 PM 40.5074 -103.5400 50° Northeast 342 394 22,000  Level FlightAware ADS-B
Wed 07:46:56 PM 40.5429 -103.4980 42° Northeast 342 394 22,000  Level FlightAware ADS-B
Wed 07:47:26 PM 40.5785 -103.4560 42° Northeast 342 394 22,000 -393 Level FlightAware ADS-B
Wed 07:47:57 PM 40.6141 -103.4130 43° Northeast 342 394 21,600 -875 Descending FlightAware ADS-B
Wed 07:48:14 PM 40.6348 -103.3880 43° Northeast 339 390 21,300 -1,043 Descending FlightAware ADS-B
Wed 07:48:20 PM 40.6418 -103.3810 37° Northeast 338 389 21,200 -1,000 Descending FlightAware ADS-B
Wed 07:48:26 PM 40.6503 -103.3750 28° Northeast 337 388 21,100 -545 Descending FlightAware ADS-B
Wed 07:48:31 PM 40.6578 -103.3710 22° Northeast 336 387 21,100 -500 Level FlightAware ADS-B
Wed 07:48:38 PM 40.6676 -103.3680 13° North 335 386 21,000 -1,200 Descending FlightAware ADS-B
Wed 07:48:46 PM 40.6790 -103.3670 North 333 383 20,800 -1,091 Descending FlightAware ADS-B
Wed 07:48:49 PM 40.6837 -103.3670 360° North 333 383 20,800 -1,000 Level FlightAware ADS-B
Wed 07:48:52 PM 40.6890 -103.3680 352° North 332 382 20,700 -857 Descending FlightAware ADS-B
Wed 07:48:56 PM 40.6951 -103.3690 353° North 332 382 20,700 -667 Level FlightAware ADS-B
Wed 07:49:01 PM 40.7023 -103.3720 342° North 331 381 20,600 -1,333 Descending FlightAware ADS-B
Wed 07:49:05 PM 40.7080 -103.3750 338° Northwest 331 381 20,500 -1,500 Descending FlightAware ADS-B
Wed 07:49:09 PM 40.7137 -103.3790 332° Northwest 329 379 20,400 -667 Descending FlightAware ADS-B
Wed 07:49:14 PM 40.7195 -103.3840 327° Northwest 329 379 20,400 -667 Level FlightAware ADS-B
Wed 07:49:18 PM 40.7246 -103.3890 323° Northwest 328 377 20,300 -1,333 Descending FlightAware ADS-B
Wed 07:49:23 PM 40.7299 -103.3960 315° West 327 376 20,200 -1,333 Descending FlightAware ADS-B
Wed 07:49:27 PM 40.7337 -103.4020 310° West 327 376 20,100 -750 Descending FlightAware ADS-B
Wed 07:49:31 PM 40.7372 -103.4090 303° West 327 376 20,100 -750 Level FlightAware ADS-B
Wed 07:49:35 PM 40.7400 -103.4160 298° West 325 374 20,000 -667 Descending FlightAware ADS-B
Wed 07:49:40 PM 40.7431 -103.4250 294° West 323 372 20,000  Level FlightAware ADS-B
Wed 07:49:46 PM 40.7456 -103.4360 287° West 322 371 20,000  Level FlightAware ADS-B
Wed 07:49:55 PM 40.7472 -103.4530 277° West 322 371 20,000  Level FlightAware ADS-B
Wed 07:50:02 PM 40.7468 -103.4680 268° West 323 372 20,000  Level FlightAware ADS-B
Wed 07:50:06 PM 40.7458 -103.4760 261° West 323 372 20,000  Level FlightAware ADS-B
Wed 07:50:10 PM 40.7443 -103.4830 254° West 324 373 20,000  Level FlightAware ADS-B
Wed 07:50:16 PM 40.7411 -103.4940 249° West 324 373 20,000  Level FlightAware ADS-B
Wed 07:50:24 PM 40.7352 -103.5080 241° Southwest 325 374 20,000  Level FlightAware ADS-B
Wed 07:50:33 PM 40.7267 -103.5210 229° Southwest 325 374 20,000  Level FlightAware ADS-B
Wed 07:51:13 PM 40.6816 -103.5750 222° Southwest 325 374 20,000  Level FlightAware ADS-B
Wed 07:51:43 PM 40.6479 -103.6150 222° Southwest 329 379 20,000  Level FlightAware ADS-B
Wed 07:52:40 PM 40.5811 -103.6860 219° Southwest 331 381 20,000  Level FlightAware ADS-B
Wed 07:52:46 PM 40.5728 -103.6890 195° South 331 381 20,000  Level FlightAware ADS-B
Wed 07:52:51 PM 40.5640 -103.6900 185° South 332 382 20,000  Level FlightAware ADS-B
Wed 07:52:59 PM 40.5523 -103.6890 176° South 331 381 20,000  Level FlightAware ADS-B
Wed 07:53:07 PM 40.5402 -103.6840 163° South 331 381 20,000  Level FlightAware ADS-B
Wed 07:53:17 PM 40.5280 -103.6750 151° Southeast 329 379 20,000  Level FlightAware ADS-B
Wed 07:53:23 PM 40.5205 -103.6660 138° Southeast 328 377 20,000  Level FlightAware ADS-B
Wed 07:53:28 PM 40.5155 -103.6580 129° Southeast 327 376 20,000  Level FlightAware ADS-B
Wed 07:53:33 PM 40.5118 -103.6500 121° Southeast 326 375 20,000  Level FlightAware ADS-B
Wed 07:53:40 PM 40.5079 -103.6380 113° Southeast 325 374 20,000  Level FlightAware ADS-B
Wed 07:53:44 PM 40.5063 -103.6310 107° East 325 374 20,000  Level FlightAware ADS-B
Wed 07:53:48 PM 40.5053 -103.6220 98° East 324 373 20,000  Level FlightAware ADS-B
Wed 07:53:53 PM 40.5051 -103.6130 92° East 324 373 20,000  Level FlightAware ADS-B
Wed 07:54:02 PM 40.5072 -103.5940 82° East 324 373 20,000  Level FlightAware ADS-B
Wed 07:54:06 PM 40.5089 -103.5870 72° East 323 372 20,000  Level FlightAware ADS-B
Wed 07:54:13 PM 40.5132 -103.5760 63° Northeast 323 372 20,000  Level FlightAware ADS-B
Wed 07:54:21 PM 40.5208 -103.5620 54° Northeast 324 373 20,000  Level FlightAware ADS-B
Wed 07:54:53 PM 40.5562 -103.5200 42° Northeast 325 374 20,000  Level FlightAware ADS-B
Wed 07:55:24 PM 40.5902 -103.4800 42° Northeast 323 372 20,000  Level FlightAware ADS-B
Wed 07:55:54 PM 40.6236 -103.4400 42° Northeast 323 372 20,000  Level FlightAware ADS-B
Wed 07:56:19 PM 40.6522 -103.4060 42° Northeast 324 373 20,000  Level FlightAware ADS-B
Wed 07:56:23 PM 40.6567 -103.4020 34° Northeast 325 374 20,000  Level FlightAware ADS-B
Wed 07:56:26 PM 40.6607 -103.3990 30° Northeast 325 374 20,000  Level FlightAware ADS-B
Wed 07:56:31 PM 40.6673 -103.3950 25° Northeast 326 375 20,000  Level FlightAware ADS-B
Wed 07:56:34 PM 40.6717 -103.3940 10° North 327 376 20,000  Level FlightAware ADS-B
Wed 07:56:39 PM 40.6795 -103.3920 11° North 327 376 20,000  Level FlightAware ADS-B
Wed 07:56:43 PM 40.6853 -103.3910 North 328 377 20,000  Level FlightAware ADS-B
Wed 07:56:47 PM 40.6912 -103.3910 360° North 327 376 20,000  Level FlightAware ADS-B
Wed 07:56:52 PM 40.6991 -103.3930 349° North 328 377 20,000  Level FlightAware ADS-B
Wed 07:56:56 PM 40.7048 -103.3950 345° North 328 377 20,000  Level FlightAware ADS-B
Wed 07:57:01 PM 40.7117 -103.3990 336° Northwest 328 377 20,000  Level FlightAware ADS-B
Wed 07:57:05 PM 40.7173 -103.4030 332° Northwest 328 377 20,000  Level FlightAware ADS-B
Wed 07:57:10 PM 40.7233 -103.4090 323° Northwest 327 376 20,000  Level FlightAware ADS-B
Wed 07:57:14 PM 40.7275 -103.4140 318° Northwest 325 374 20,000  Level FlightAware ADS-B
Wed 07:57:20 PM 40.7333 -103.4230 310° West 322 371 20,000  Level FlightAware ADS-B
Wed 07:57:25 PM 40.7373 -103.4310 303° West 320 368 20,000  Level FlightAware ADS-B
Wed 07:57:28 PM 40.7392 -103.4370 293° West 318 366 20,000  Level FlightAware ADS-B
Wed 07:57:35 PM 40.7422 -103.4490 288° West 313 360 20,000  Level FlightAware ADS-B
Wed 07:57:39 PM 40.7433 -103.4560 282° West 312 359 20,000  Level FlightAware ADS-B
Wed 07:57:43 PM 40.7438 -103.4630 275° West 309 356 20,000  Level FlightAware ADS-B
Wed 07:57:48 PM 40.7436 -103.4740 269° West 308 354 20,000  Level FlightAware ADS-B
Wed 07:57:53 PM 40.7425 -103.4830 261° West 308 354 20,000  Level FlightAware ADS-B
Wed 07:57:58 PM 40.7404 -103.4930 255° West 309 356 20,000  Level FlightAware ADS-B
Wed 07:58:02 PM 40.7385 -103.4990 247° West 310 357 20,000  Level FlightAware ADS-B
Wed 07:58:07 PM 40.7352 -103.5070 241° Southwest 310 357 20,000  Level FlightAware ADS-B
Wed 07:58:13 PM 40.7305 -103.5160 235° Southwest 311 358 20,000  Level FlightAware ADS-B
Wed 07:58:17 PM 40.7256 -103.5230 227° Southwest 310 357 20,000  Level FlightAware ADS-B
Wed 07:58:37 PM 40.7042 -103.5480 222° Southwest 312 359 20,000  Level FlightAware ADS-B
Wed 07:59:11 PM 40.6683 -103.5910 222° Southwest 314 361 20,000  Level FlightAware ADS-B
Wed 07:59:42 PM 40.6354 -103.6300 222° Southwest 314 361 20,000  Level FlightAware ADS-B
Wed 08:00:24 PM 40.5882 -103.6820 220° Southwest 314 361 20,000  Level FlightAware ADS-B
Wed 08:00:34 PM 40.5743 -103.6880 198° South 314 361 20,000  Level FlightAware ADS-B
Wed 08:00:39 PM 40.5671 -103.6880 180° South 314 361 20,000  Level FlightAware ADS-B
Wed 08:00:44 PM 40.5603 -103.6880 180° South 312 359 20,000  Level FlightAware ADS-B
Wed 08:00:52 PM 40.5498 -103.6850 168° South 311 358 20,000  Level FlightAware ADS-B
Wed 08:00:56 PM 40.5435 -103.6810 154° Southeast 311 358 20,000  Level FlightAware ADS-B
Wed 08:01:04 PM 40.5347 -103.6740 149° Southeast 310 357 20,000  Level FlightAware ADS-B
Wed 08:01:07 PM 40.5312 -103.6700 139° Southeast 309 356 20,000  Level FlightAware ADS-B
Wed 08:01:12 PM 40.5265 -103.6640 136° Southeast 308 354 20,000  Level FlightAware ADS-B
Wed 08:01:16 PM 40.5227 -103.6570 126° Southeast 308 354 20,000  Level FlightAware ADS-B
Wed 08:01:20 PM 40.5200 -103.6510 121° Southeast 307 353 20,000  Level FlightAware ADS-B
Wed 08:01:24 PM 40.5178 -103.6440 112° Southeast 306 352 20,000  Level FlightAware ADS-B
Wed 08:01:31 PM 40.5152 -103.6310 105° East 305 351 20,000  Level FlightAware ADS-B
Wed 08:01:39 PM 40.5146 -103.6170 93° East 304 350 20,000  Level FlightAware ADS-B
Wed 08:01:46 PM 40.5162 -103.6030 81° East 305 351 20,000  Level FlightAware ADS-B
Wed 08:01:50 PM 40.5176 -103.5970 73° East 305 351 20,000  Level FlightAware ADS-B
Wed 08:01:54 PM 40.5200 -103.5900 66° East 305 351 20,000  Level FlightAware ADS-B
Wed 08:01:59 PM 40.5235 -103.5820 60° Northeast 305 351 20,000  Level FlightAware ADS-B
Wed 08:02:08 PM 40.5320 -103.5690 49° Northeast 306 352 20,000  Level FlightAware ADS-B
Wed 08:02:39 PM 40.5643 -103.5310 42° Northeast 309 356 20,000  Level FlightAware ADS-B
Wed 08:03:10 PM 40.5975 -103.4910 42° Northeast 307 353 20,000  Level FlightAware ADS-B
Wed 08:03:40 PM 40.6291 -103.4530 42° Northeast 309 356 20,000  Level FlightAware ADS-B
Wed 08:04:06 PM 40.6561 -103.4210 42° Northeast 309 356 20,000  Level FlightAware ADS-B
Wed 08:04:13 PM 40.6642 -103.4140 33° Northeast 308 354 20,000  Level FlightAware ADS-B
Wed 08:04:17 PM 40.6699 -103.4100 28° Northeast 312 359 20,000  Level FlightAware ADS-B
Wed 08:04:29 PM 40.6864 -103.4020 20° North 324 373 20,000  Level FlightAware ADS-B
Wed 08:04:33 PM 40.6920 -103.3990 22° Northeast 328 377 20,000  Level FlightAware ADS-B
Wed 08:04:38 PM 40.6980 -103.3940 32° Northeast 333 383 20,000  Level FlightAware ADS-B
Wed 08:04:45 PM 40.7059 -103.3840 44° Northeast 342 394 20,000  Level FlightAware ADS-B
Wed 08:04:52 PM 40.7123 -103.3720 55° Northeast 351 404 20,000  Level FlightAware ADS-B
Wed 08:04:56 PM 40.7156 -103.3630 64° Northeast 357 411 20,000  Level FlightAware ADS-B
Wed 08:05:06 PM 40.7195 -103.3410 77° East 369 425 20,000  Level FlightAware ADS-B
Wed 08:05:11 PM 40.7198 -103.3300 88° East 374 430 20,000  Level FlightAware ADS-B
Wed 08:05:16 PM 40.7189 -103.3190 96° East 379 436 20,000  Level FlightAware ADS-B
Wed 08:05:22 PM 40.7166 -103.3060 103° East 385 443 20,000  Level FlightAware ADS-B
Wed 08:05:33 PM 40.7079 -103.2820 116° Southeast 393 452 20,000  Level FlightAware ADS-B
Wed 08:05:37 PM 40.7033 -103.2740 127° Southeast 397 457 20,000  Level FlightAware ADS-B
Wed 08:05:45 PM 40.6935 -103.2610 135° Southeast 402 463 20,000  Level FlightAware ADS-B
Wed 08:06:15 PM 40.6516 -103.2100 137° Southeast 415 478 20,000  Level FlightAware ADS-B
Wed 08:06:45 PM 40.6086 -103.1580 137° Southeast 417 480 20,000  Level FlightAware ADS-B
Wed 08:07:16 PM 40.5661 -103.1050 137° Southeast 417 480 20,000 286 Level FlightAware ADS-B
Wed 08:07:48 PM 40.5206 -103.0490 137° Southeast 419 482 20,300 774 Climbing FlightAware ADS-B
Wed 08:08:18 PM 40.4775 -102.9960 137° Southeast 425 489 20,800 700 Climbing FlightAware ADS-B
Wed 08:08:48 PM 40.4341 -102.9430 137° Southeast 427 491 21,000 197 Climbing FlightAware ADS-B
Wed 08:09:19 PM 40.3901 -102.8890 137° Southeast 428 493 21,000  Level FlightAware ADS-B
Wed 08:09:49 PM 40.3466 -102.8360 137° Southeast 428 493 21,000  Level FlightAware ADS-B
Wed 08:10:20 PM 40.3017 -102.7820 137° Southeast 430 495 21,000  Level FlightAware ADS-B
Wed 08:10:50 PM 40.2574 -102.7280 137° Southeast 430 495 21,000  Level FlightAware ADS-B
Wed 08:11:02 PM 40.2399 -102.7070 138° Southeast 429 494 21,000  Level FlightAware ADS-B
Wed 08:11:06 PM 40.2340 -102.7010 142° Southeast 429 494 21,000  Level FlightAware ADS-B
Wed 08:11:11 PM 40.2250 -102.6930 146° Southeast 428 493 21,000  Level FlightAware ADS-B
Wed 08:11:18 PM 40.2123 -102.6860 157° South 427 491 21,000  Level FlightAware ADS-B
Wed 08:11:23 PM 40.2035 -102.6830 165° South 426 490 21,000  Level FlightAware ADS-B
Wed 08:11:30 PM 40.1890 -102.6810 174° South 426 490 21,000  Level FlightAware ADS-B
Wed 08:11:37 PM 40.1754 -102.6820 183° South 426 490 21,000  Level FlightAware ADS-B
Wed 08:12:08 PM 40.1153 -102.6930 188° South 426 490 21,000  Level FlightAware ADS-B
Wed 08:12:38 PM 40.0560 -102.7040 188° South 425 489 21,000  Level FlightAware ADS-B
Wed 08:13:09 PM 39.9976 -102.7160 189° South 424 488 21,000  Level FlightAware ADS-B
Wed 08:13:40 PM 39.9375 -102.7270 188° South 423 487 21,000  Level FlightAware ADS-B
Wed 08:14:10 PM 39.8783 -102.7380 188° South 423 487 21,000  Level FlightAware ADS-B
Wed 08:14:40 PM 39.8196 -102.7500 189° South 423 487 21,000  Level FlightAware ADS-B
Wed 08:15:12 PM 39.7588 -102.7620 189° South 425 489 21,000  Level FlightAware ADS-B
Wed 08:15:42 PM 39.6996 -102.7730 188° South 426 490 21,000  Level FlightAware ADS-B
Wed 08:16:13 PM 39.6401 -102.7830 187° South 427 491 21,000  Level FlightAware ADS-B
Wed 08:16:43 PM 39.5809 -102.7940 188° South 428 493 21,000  Level FlightAware ADS-B
Wed 08:17:14 PM 39.5195 -102.8050 188° South 429 494 21,000  Level FlightAware ADS-B
Wed 08:17:45 PM 39.4586 -102.8160 188° South 430 495 21,000  Level FlightAware ADS-B
Wed 08:18:15 PM 39.3993 -102.8280 189° South 431 496 21,000  Level FlightAware ADS-B
Wed 08:18:46 PM 39.3392 -102.8400 189° South 430 495 21,000  Level FlightAware ADS-B
Wed 08:19:17 PM 39.2775 -102.8520 189° South 430 495 21,000  Level FlightAware ADS-B
Wed 08:19:47 PM 39.2178 -102.8630 188° South 429 494 21,000  Level FlightAware ADS-B
Wed 08:20:10 PM 39.1736 -102.8720 189° South 429 494 21,000  Level FlightAware ADS-B
Wed 08:20:20 PM 39.1545 -102.8780 194° South 429 494 21,000  Level FlightAware ADS-B
Wed 08:20:24 PM 39.1468 -102.8820 202° Southwest 429 494 21,000  Level FlightAware ADS-B
Wed 08:20:31 PM 39.1343 -102.8910 209° Southwest 430 495 21,000  Level FlightAware ADS-B
Wed 08:20:38 PM 39.1239 -102.9020 219° Southwest 430 495 21,000  Level FlightAware ADS-B
Wed 08:20:43 PM 39.1170 -102.9110 225° Southwest 430 495 21,000  Level FlightAware ADS-B
Wed 08:20:49 PM 39.1097 -102.9240 234° Southwest 430 495 21,000  Level FlightAware ADS-B
Wed 08:21:02 PM 39.0982 -102.9520 242° Southwest 429 494 21,000  Level FlightAware ADS-B
Wed 08:21:07 PM 39.0948 -102.9650 251° West 428 493 21,000  Level FlightAware ADS-B
Wed 08:21:16 PM 39.0914 -102.9870 259° West 427 491 21,000  Level FlightAware ADS-B
Wed 08:21:23 PM 39.0907 -103.0050 267° West 427 491 21,000  Level FlightAware ADS-B
Wed 08:21:31 PM 39.0921 -103.0250 275° West 426 490 21,000  Level FlightAware ADS-B
Wed 08:21:37 PM 39.0944 -103.0390 282° West 426 490 21,000  Level FlightAware ADS-B
Wed 08:21:42 PM 39.0973 -103.0510 287° West 425 489 21,000  Level FlightAware ADS-B
Wed 08:22:12 PM 39.1210 -103.1200 294° West 426 490 21,000  Level FlightAware ADS-B
Wed 08:22:42 PM 39.1458 -103.1930 294° West 448 516 21,000  Level FlightAware ADS-B
Wed 08:23:13 PM 39.1721 -103.2700 294° West 461 531 21,000  Level FlightAware ADS-B
Wed 08:23:44 PM 39.1978 -103.3460 294° West 462 532 21,000  Level FlightAware ADS-B
Wed 08:24:14 PM 39.2236 -103.4230 293° West 462 532 21,000  Level FlightAware ADS-B
Wed 08:24:44 PM 39.2492 -103.4990 294° West 461 531 21,000  Level FlightAware ADS-B
Wed 08:25:14 PM 39.2745 -103.5740 294° West 451 519 21,000 -1,200 Level FlightAware ADS-B
Wed 08:25:44 PM 39.2992 -103.6480 293° West 442 509 19,800 -2,164 Descending FlightAware ADS-B
Wed 08:26:15 PM 39.3233 -103.7190 294° West 426 490 18,800 -2,164 Descending FlightAware ADS-B
Wed 08:26:45 PM 39.3467 -103.7890 293° West 416 479 17,600 -1,700 Descending FlightAware ADS-B
Wed 08:27:15 PM 39.3690 -103.8560 293° West 392 451 17,100 -700 Descending FlightAware ADS-B
Wed 08:27:45 PM 39.3896 -103.9170 294° West 360 414 16,900 -286 Descending FlightAware ADS-B
Wed 08:27:57 PM 39.3951 -103.9410 287° West 348 400 16,900 -333 Level FlightAware ADS-B
Wed 08:28:03 PM 39.3970 -103.9530 282° West 342 394 16,800 -429 Descending FlightAware ADS-B
Wed 08:28:11 PM 39.3985 -103.9690 277° West 339 390 16,800 -1,421 Level FlightAware ADS-B
Wed 08:28:41 PM 39.4009 -104.0300 273° West 341 392 15,900 -1,700 Descending FlightAware ADS-B
Wed 08:29:11 PM 39.4037 -104.0930 273° West 347 399 15,100 -1,672 Descending FlightAware ADS-B
Wed 08:29:42 PM 39.4067 -104.1550 274° West 343 395 14,200 -1,672 Descending FlightAware ADS-B
Wed 08:30:12 PM 39.4094 -104.2160 273° West 327 376 13,400 -1,000 Descending FlightAware ADS-B
Wed 08:30:42 PM 39.4113 -104.2710 273° West 299 344 13,200 -689 Descending FlightAware ADS-B
Wed 08:31:13 PM 39.4137 -104.3250 273° West 284 327 12,700 -787 Descending FlightAware ADS-B
Wed 08:31:43 PM 39.4160 -104.3770 273° West 292 336 12,400 -1,180 Descending FlightAware ADS-B
Wed 08:32:14 PM 39.4182 -104.4310 273° West 308 354 11,500 -1,645 Descending FlightAware ADS-B
Wed 08:32:45 PM 39.4211 -104.4880 274° West 311 358 10,700 -1,692 Descending FlightAware ADS-B
Wed 08:32:53 PM 39.4223 -104.5040 276° West 311 358 10,400 -1,600 Descending FlightAware ADS-B
Wed 08:33:00 PM 39.4246 -104.5160 284° West 311 358 10,300 -1,286 Descending FlightAware ADS-B
Wed 08:33:07 PM 39.4285 -104.5280 293° West 310 357 10,100 -2,182 Descending FlightAware ADS-B
Wed 08:33:11 PM 39.4318 -104.5340 305° West 311 358 9,900 -2,182 Descending FlightAware ADS-B
Wed 08:33:18 PM 39.4378 -104.5450 305° West 311 358 9,700 -1,333 Descending FlightAware ADS-B
Wed 08:33:29 PM 39.4473 -104.5610 308° West 304 350 9,500 -1,154 Descending FlightAware ADS-B
Wed 08:33:44 PM 39.4598 -104.5830 306° West 295 339 9,200 -1,200 Descending FlightAware ADS-B
Wed 08:33:54 PM 39.4682 -104.5960 310° West 290 334 9,000 -480 Descending FlightAware ADS-B
Wed 08:34:09 PM 39.4816 -104.6150 312° West 280 322 9,000  Level FlightAware ADS-B
Wed 08:34:13 PM 39.4854 -104.6200 315° West 282 325 9,000  Level FlightAware ADS-B
Wed 08:34:16 PM 39.4886 -104.6240 316° Northwest 284 327 9,000  Level FlightAware ADS-B
Wed 08:34:20 PM 39.4921 -104.6270 327° Northwest 285 328 9,000  Level FlightAware ADS-B
Wed 08:34:26 PM 39.4991 -104.6320 331° Northwest 288 331 9,000  Level FlightAware ADS-B
Wed 08:34:30 PM 39.5036 -104.6350 333° Northwest 288 331 9,000  Level FlightAware ADS-B
Wed 08:34:34 PM 39.5097 -104.6370 346° North 290 334 9,000 -316 Level FlightAware ADS-B
Wed 08:34:49 PM 39.5289 -104.6430 346° North 284 327 8,900 -286 Descending FlightAware ADS-B
Wed 08:34:55 PM 39.5360 -104.6450 348° North 279 321 8,900  Level FlightAware ADS-B
Wed 08:35:03 PM 39.5467 -104.6450 360° North 275 316 8,900  Level FlightAware ADS-B
Wed 08:35:08 PM 39.5523 -104.6450 360° North 272 313 8,900 286 Level FlightAware ADS-B
Wed 08:35:24 PM 39.5723 -104.6450 360° North 260 299 9,000 167 Climbing FlightAware ADS-B
Wed 08:35:44 PM 39.5955 -104.6440 North 254 292 9,000 -188 Level FlightAware ADS-B
Wed 08:35:56 PM 39.6099 -104.6440 360° North 252 290 8,900 -214 Descending FlightAware ADS-B
Wed 08:36:12 PM 39.6282 -104.6440 360° North 239 275 8,900 -308 Level FlightAware ADS-B
Wed 08:36:35 PM 39.6537 -104.6440 360° North 237 273 8,700 -923 Descending FlightAware ADS-B
Wed 08:36:51 PM 39.6715 -104.6440 360° North 242 278 8,300 -1,313 Descending FlightAware ADS-B
Wed 08:37:07 PM 39.6886 -104.6440 360° North 239 275 8,000 -1,091 Descending FlightAware ADS-B
Wed 08:37:24 PM 39.7077 -104.6430 North 230 265 7,700 -1,286 Descending FlightAware ADS-B
Wed 08:37:35 PM 39.7188 -104.6430 360° North 225 259 7,400 -1,154 Descending FlightAware ADS-B
Wed 08:37:50 PM 39.7343 -104.6430 360° North 215 247 7,200 -1,029 Descending FlightAware ADS-B
Wed 08:38:10 PM 39.7528 -104.6430 360° North 198 228 6,800 -1,029 Descending FlightAware ADS-B
Wed 08:38:25 PM 39.7661 -104.6430 360° North 185 213 6,600 -857 Descending FlightAware ADS-B
Wed 08:38:45 PM 39.7822 -104.6420 North 167 192 6,300 -857 Descending FlightAware ADS-B
Wed 08:39:00 PM 39.7935 -104.6420 360° North 155 178 6,100 -750 Descending FlightAware ADS-B
Wed 08:39:09 PM 39.7996 -104.6420 360° North 148 170 6,000 -750 Descending FlightAware ADS-B
Wed 08:39:24 PM 39.8100 -104.6420 360° North 147 169 5,800 -774 Descending FlightAware ADS-B
Wed 08:39:40 PM 39.8203 -104.6420 360° North 148 170 5,600 -750 Descending FlightAware ADS-B

Login

Don't have an account? Register now (free) for customized features, flight alerts, and more!